createdAt,value
2018-02-02T00:00:34.378Z,7.88
2018-02-02T00:03:04.145Z,7.52
2018-02-02T00:05:32.601Z,7.92
2018-02-02T00:08:01.406Z,7.87
2018-02-02T00:10:29.791Z,7.81
2018-02-02T00:12:58.159Z,7.79
2018-02-02T00:15:28.061Z,7.79
2018-02-02T00:17:56.937Z,7.42
2018-02-02T00:20:26.625Z,7.33
2018-02-02T00:22:54.997Z,7.56
2018-02-02T00:25:24.658Z,7.29
2018-02-02T00:27:53.370Z,7.13
2018-02-02T00:30:23.268Z,7.39
2018-02-02T00:32:51.740Z,7.29
2018-02-02T00:35:21.083Z,7.36
2018-02-02T00:37:49.957Z,7.59
2018-02-02T00:40:18.670Z,7.10
2018-02-02T00:42:47.664Z,7.07
2018-02-02T00:45:16.781Z,6.84
2018-02-02T00:47:45.396Z,7.04
2018-02-02T00:50:14.533Z,7.15
2018-02-02T00:52:44.279Z,7.15
2018-02-02T00:55:13.180Z,7.11
2018-02-02T00:57:42.472Z,7.19
2018-02-02T01:00:11.686Z,6.91
2018-02-02T01:02:41.198Z,7.07
2018-02-02T01:05:11.004Z,7.18
2018-02-02T01:07:39.438Z,7.35
2018-02-02T01:10:08.622Z,7.40
2018-02-02T01:12:38.045Z,7.36
2018-02-02T01:15:08.041Z,7.05
2018-02-02T01:17:38.404Z,7.19
2018-02-02T01:20:07.235Z,6.98
2018-02-02T01:22:35.951Z,7.05
2018-02-02T01:25:04.975Z,7.08
2018-02-02T01:27:33.376Z,6.98
2018-02-02T01:30:02.308Z,6.92
2018-02-02T01:32:31.453Z,6.76
2018-02-02T01:35:00.162Z,6.94
2018-02-02T01:37:28.668Z,6.95
2018-02-02T01:39:58.167Z,7.03
2018-02-02T01:42:28.142Z,6.92
2018-02-02T01:44:56.939Z,6.97
2018-02-02T01:47:26.205Z,6.93
2018-02-02T01:49:55.418Z,6.85
2018-02-02T01:52:24.282Z,6.81
2018-02-02T01:54:54.046Z,6.90
2018-02-02T01:57:22.815Z,6.99
2018-02-02T01:59:51.305Z,7.01
2018-02-02T02:02:19.767Z,6.97
2018-02-02T02:04:49.732Z,6.93
2018-02-02T02:07:18.852Z,6.94
2018-02-02T02:09:47.731Z,6.73
2018-02-02T02:12:16.273Z,6.64
2018-02-02T02:14:44.999Z,6.72
2018-02-02T02:17:14.799Z,6.70
2018-02-02T02:19:43.745Z,6.63
2018-02-02T02:22:12.168Z,6.68
2018-02-02T02:24:41.252Z,6.72
2018-02-02T02:27:10.148Z,6.49
2018-02-02T02:29:39.760Z,6.71
2018-02-02T02:32:08.843Z,6.82
2018-02-02T02:34:37.201Z,6.69
2018-02-02T02:37:06.410Z,6.72
2018-02-02T02:39:35.580Z,6.60
2018-02-02T02:42:04.284Z,6.44
2018-02-02T02:44:32.629Z,6.71
2018-02-02T02:47:02.581Z,6.66
2018-02-02T02:49:31.477Z,6.60
2018-02-02T02:52:00.670Z,6.57
2018-02-02T02:54:29.472Z,6.72
2018-02-02T02:56:58.168Z,6.59
2018-02-02T02:59:26.851Z,6.53
2018-02-02T03:01:55.295Z,6.50
2018-02-02T03:04:24.538Z,6.61
2018-02-02T03:06:52.938Z,6.51
2018-02-02T03:09:22.719Z,6.59
2018-02-02T03:11:51.530Z,6.27
2018-02-02T03:14:20.750Z,6.41
2018-02-02T03:16:49.927Z,6.12
2018-02-02T03:19:18.424Z,6.07
2018-02-02T03:21:53.345Z,6.42
2018-02-02T03:24:22.982Z,6.26
2018-02-02T03:26:52.237Z,6.30
2018-02-02T03:29:21.048Z,6.16
2018-02-02T03:31:49.701Z,6.17
2018-02-02T03:34:18.317Z,6.15
2018-02-02T03:36:47.487Z,6.17
2018-02-02T03:39:16.064Z,6.12
2018-02-02T03:41:44.897Z,6.35
2018-02-02T03:44:13.905Z,6.21
2018-02-02T03:46:42.382Z,6.29
2018-02-02T03:49:11.677Z,5.88
2018-02-02T03:51:40.527Z,5.90
2018-02-02T03:54:09.523Z,5.90
2018-02-02T03:56:38.211Z,5.92
2018-02-02T03:59:07.942Z,6.00
2018-02-02T04:01:37.080Z,5.88
2018-02-02T04:04:05.466Z,5.77
2018-02-02T04:06:35.169Z,5.94
2018-02-02T04:09:03.859Z,5.71
2018-02-02T04:11:32.787Z,5.80
2018-02-02T04:14:01.558Z,6.06
2018-02-02T04:16:29.982Z,6.12
2018-02-02T04:18:59.850Z,5.83
2018-02-02T04:21:28.547Z,5.37
2018-02-02T04:23:57.789Z,5.83
2018-02-02T04:26:26.981Z,5.92
2018-02-02T04:28:55.850Z,5.82
2018-02-02T04:31:24.655Z,5.87
2018-02-02T04:33:53.948Z,5.93
2018-02-02T04:36:23.067Z,5.86
2018-02-02T04:38:52.573Z,5.87
2018-02-02T04:41:21.453Z,5.49
2018-02-02T04:43:50.484Z,5.59
2018-02-02T04:46:19.908Z,5.92
2018-02-02T04:48:49.611Z,5.91
2018-02-02T04:51:17.998Z,5.77
2018-02-02T04:53:47.058Z,5.79
2018-02-02T04:56:15.497Z,5.90
2018-02-02T04:58:44.534Z,5.88
2018-02-02T05:01:13.266Z,6.09
2018-02-02T05:03:42.265Z,6.15
2018-02-02T05:06:12.037Z,6.26
2018-02-02T05:08:40.698Z,6.00
2018-02-02T05:11:10.257Z,6.08
2018-02-02T05:13:38.937Z,5.71
2018-02-02T05:16:07.385Z,5.78
2018-02-02T05:18:36.759Z,6.01
2018-02-02T05:21:05.675Z,5.99
2018-02-02T05:23:34.289Z,5.99
2018-02-02T05:26:03.640Z,6.01
2018-02-02T05:28:32.858Z,5.92
2018-02-02T05:31:01.524Z,6.07
2018-02-02T05:33:30.693Z,6.22
2018-02-02T05:36:00.347Z,6.00
2018-02-02T05:38:29.607Z,6.01
2018-02-02T05:40:58.018Z,5.66
2018-02-02T05:43:27.520Z,6.03
2018-02-02T05:45:56.234Z,5.99
2018-02-02T05:48:25.039Z,6.29
2018-02-02T05:50:53.743Z,6.18
2018-02-02T05:53:22.118Z,6.26
2018-02-02T05:55:51.405Z,6.23
2018-02-02T05:58:19.995Z,6.28
2018-02-02T06:00:48.573Z,6.43
2018-02-02T06:03:17.160Z,6.49
2018-02-02T06:05:45.550Z,6.51
2018-02-02T06:08:14.893Z,6.54
2018-02-02T06:10:44.146Z,6.25
2018-02-02T06:13:12.936Z,6.65
2018-02-02T06:15:41.676Z,6.86
2018-02-02T06:18:10.209Z,6.92
2018-02-02T06:20:39.733Z,6.79
2018-02-02T06:23:08.197Z,6.77
2018-02-02T06:25:36.991Z,6.67
2018-02-02T06:28:05.937Z,6.76
2018-02-02T06:30:36.015Z,6.92
2018-02-02T06:33:06.131Z,6.75
2018-02-02T06:35:34.610Z,6.73
2018-02-02T06:38:03.681Z,6.56
2018-02-02T06:40:32.436Z,6.94
2018-02-02T06:43:01.285Z,7.00
2018-02-02T06:45:30.483Z,7.14
2018-02-02T06:47:59.354Z,6.95
2018-02-02T06:50:28.901Z,7.14
2018-02-02T06:52:57.568Z,6.87
2018-02-02T06:55:27.394Z,6.72
2018-02-02T06:57:56.662Z,6.97
2018-02-02T07:00:25.677Z,6.92
2018-02-02T07:02:55.293Z,6.71
2018-02-02T07:05:24.564Z,6.97
2018-02-02T07:07:53.521Z,7.08
2018-02-02T07:10:22.159Z,7.42
2018-02-02T07:12:51.870Z,7.31
2018-02-02T07:15:21.046Z,7.41
2018-02-02T07:17:49.487Z,7.33
2018-02-02T07:20:17.990Z,7.70
2018-02-02T07:22:46.748Z,7.98
2018-02-02T07:25:15.492Z,7.81
2018-02-02T07:27:44.232Z,7.92
2018-02-02T07:30:13.778Z,7.83
2018-02-02T07:32:43.427Z,8.22
2018-02-02T07:35:11.907Z,8.57
2018-02-02T07:37:40.476Z,8.53
2018-02-02T07:40:09.984Z,8.97
2018-02-02T07:42:39.342Z,9.44
2018-02-02T07:45:08.584Z,9.41
2018-02-02T07:47:37.429Z,9.16
2018-02-02T07:50:05.870Z,9.22
2018-02-02T07:52:34.716Z,8.53
2018-02-02T07:55:04.087Z,8.40
2018-02-02T07:57:32.659Z,8.64
2018-02-02T08:00:02.768Z,8.96
2018-02-02T08:02:31.159Z,9.33
2018-02-02T08:04:59.729Z,8.99
2018-02-02T08:07:28.166Z,8.87
2018-02-02T08:09:57.180Z,9.09
2018-02-02T08:12:26.460Z,9.00
2018-02-02T08:14:55.361Z,9.16
2018-02-02T08:17:25.046Z,9.63
2018-02-02T08:19:55.190Z,9.89
2018-02-02T08:22:23.574Z,10.24
2018-02-02T08:24:51.946Z,9.44
2018-02-02T08:27:20.622Z,9.90
2018-02-02T08:29:49.066Z,9.69
2018-02-02T08:32:17.429Z,9.67
2018-02-02T08:34:45.941Z,9.80
2018-02-02T08:37:14.289Z,9.35
2018-02-02T08:39:43.444Z,9.70
2018-02-02T08:42:12.216Z,9.89
2018-02-02T08:44:41.335Z,9.68
2018-02-02T08:47:10.265Z,10.03
2018-02-02T08:49:38.980Z,10.06
2018-02-02T08:52:07.785Z,10.25
2018-02-02T08:54:36.897Z,10.48
2018-02-02T08:57:06.611Z,10.11
2018-02-02T08:59:36.006Z,9.87
2018-02-02T09:02:06.802Z,9.89
2018-02-02T09:04:35.245Z,10.00
2018-02-02T09:07:03.672Z,10.31
2018-02-02T09:09:32.111Z,11.51
2018-02-02T09:12:00.531Z,12.71
2018-02-02T09:14:28.985Z,13.31
2018-02-02T09:16:57.440Z,13.89
2018-02-02T09:19:25.872Z,14.54
2018-02-02T09:21:53.507Z,14.57
2018-02-02T09:24:21.960Z,14.59
2018-02-02T09:26:50.804Z,13.65
2018-02-02T09:29:19.238Z,14.01
2018-02-02T09:31:47.695Z,13.51
2018-02-02T09:34:16.628Z,13.23
2018-02-02T09:36:45.061Z,13.00
2018-02-02T09:39:13.593Z,13.49
2018-02-02T09:41:42.076Z,12.99
2018-02-02T09:44:10.512Z,13.40
2018-02-02T09:46:39.360Z,13.05
2018-02-02T09:49:07.832Z,13.41
2018-02-02T09:51:36.308Z,14.61
2018-02-02T09:54:04.783Z,15.03
2018-02-02T09:56:33.220Z,16.13
2018-02-02T09:59:01.735Z,16.34
2018-02-02T10:01:30.191Z,16.62
2018-02-02T10:03:59.130Z,17.23
2018-02-02T10:06:27.567Z,16.55
2018-02-02T10:08:56.412Z,16.39
2018-02-02T10:11:24.855Z,14.93
2018-02-02T10:13:53.348Z,15.39
2018-02-02T10:16:21.803Z,16.25
2018-02-02T10:18:50.624Z,16.43
2018-02-02T10:21:19.049Z,16.76
2018-02-02T10:23:47.584Z,16.76
2018-02-02T10:26:16.020Z,17.09
2018-02-02T10:28:44.850Z,16.97
2018-02-02T10:31:13.326Z,16.35
2018-02-02T10:33:41.764Z,16.54
2018-02-02T10:36:10.288Z,17.12
2018-02-02T10:38:38.731Z,16.56
2018-02-02T10:41:07.161Z,16.60
2018-02-02T10:43:35.641Z,16.23
2018-02-02T10:46:04.121Z,16.16
2018-02-02T10:48:32.618Z,16.29
2018-02-02T10:51:01.073Z,15.47
2018-02-02T10:53:29.535Z,15.87
2018-02-02T10:55:58.380Z,15.77
2018-02-02T10:58:26.833Z,14.79
2018-02-02T11:01:00.788Z,13.53
2018-02-02T11:03:31.200Z,13.49
2018-02-02T11:05:59.903Z,13.92
2018-02-02T11:08:28.353Z,14.23
2018-02-02T11:10:56.796Z,13.87
2018-02-02T11:13:25.255Z,13.61
2018-02-02T11:15:54.098Z,13.66
2018-02-02T11:18:22.537Z,14.01
2018-02-02T11:20:51.447Z,14.41
2018-02-02T11:23:19.919Z,14.29
2018-02-02T11:25:48.414Z,13.84
2018-02-02T11:28:16.932Z,13.41
2018-02-02T11:30:45.366Z,13.56
2018-02-02T11:33:13.817Z,13.88
2018-02-02T11:35:42.276Z,13.47
2018-02-02T11:38:10.744Z,13.00
2018-02-02T11:40:39.220Z,12.79
2018-02-02T11:43:07.699Z,13.11
2018-02-02T11:45:36.164Z,13.11
2018-02-02T11:48:04.600Z,13.22
2018-02-02T11:50:33.132Z,13.56
2018-02-02T11:53:01.608Z,13.63
2018-02-02T11:55:30.060Z,13.71
2018-02-02T11:57:58.908Z,13.29
2018-02-02T12:00:27.368Z,12.91
2018-02-02T12:02:55.787Z,13.21
2018-02-02T12:05:24.241Z,13.06
2018-02-02T12:07:52.683Z,12.98
2018-02-02T12:10:21.120Z,12.87
2018-02-02T12:12:49.663Z,13.08
2018-02-02T12:15:18.145Z,12.92
2018-02-02T12:17:46.588Z,12.91
2018-02-02T12:20:15.443Z,12.78
2018-02-02T12:22:54.552Z,12.31
2018-02-02T12:28:44.180Z,11.95
2018-02-02T12:31:15.881Z,12.32
2018-02-02T12:33:48.873Z,12.30
2018-02-02T12:36:22.327Z,12.32
2018-02-02T12:38:50.770Z,12.04
2018-02-02T12:41:19.208Z,12.65
2018-02-02T12:43:48.054Z,12.04
2018-02-02T12:46:16.526Z,11.96
2018-02-02T12:48:45.002Z,12.02
2018-02-02T12:51:17.135Z,11.96
2018-02-02T12:53:45.969Z,11.83
2018-02-02T12:56:14.432Z,11.85
2018-02-02T12:58:42.880Z,12.36
2018-02-02T13:01:11.823Z,11.93
2018-02-02T13:03:40.291Z,12.26
2018-02-02T13:06:08.752Z,12.27
2018-02-02T13:08:37.172Z,11.99
2018-02-02T13:11:05.624Z,11.98
2018-02-02T13:13:34.084Z,11.85
2018-02-02T13:16:02.997Z,11.45
2018-02-02T13:18:31.428Z,11.70
2018-02-02T13:20:59.880Z,11.67
2018-02-02T13:23:28.339Z,11.78
2018-02-02T13:25:56.785Z,11.99
2018-02-02T13:28:25.631Z,11.07
2018-02-02T13:30:54.097Z,11.57
2018-02-02T13:33:22.533Z,11.87
2018-02-02T13:35:51.472Z,11.95
2018-02-02T13:38:20.061Z,11.64
2018-02-02T13:40:48.492Z,11.74
2018-02-02T13:43:17.427Z,11.60
2018-02-02T13:45:45.859Z,11.74
2018-02-02T13:48:14.801Z,11.73
2018-02-02T13:50:43.273Z,11.86
2018-02-02T13:53:11.698Z,12.09
2018-02-02T13:55:40.120Z,11.89
2018-02-02T13:58:08.578Z,11.29
2018-02-02T14:00:37.401Z,11.11
2018-02-02T14:03:05.836Z,11.42
2018-02-02T14:05:34.292Z,11.68
2018-02-02T14:08:02.751Z,11.69
2018-02-02T14:10:31.192Z,11.39
2018-02-02T14:12:59.714Z,11.47
2018-02-02T14:15:28.143Z,11.61
2018-02-02T14:17:56.986Z,11.83
2018-02-02T14:20:25.467Z,11.70
2018-02-02T14:22:53.935Z,11.29
2018-02-02T14:25:22.361Z,11.61
2018-02-02T14:27:50.815Z,11.73
2018-02-02T14:30:19.248Z,11.46
2018-02-02T14:32:48.163Z,11.60
2018-02-02T14:35:16.625Z,11.99
2018-02-02T14:37:45.064Z,11.81
2018-02-02T14:40:13.483Z,11.75
2018-02-02T14:42:42.336Z,12.08
2018-02-02T14:45:10.782Z,11.78
2018-02-02T14:47:39.283Z,11.51
2018-02-02T14:50:07.775Z,11.44
2018-02-02T14:52:36.208Z,10.91
2018-02-02T14:55:04.636Z,10.93
2018-02-02T14:57:33.275Z,10.35
2018-02-02T15:00:01.832Z,10.32
2018-02-02T15:02:30.347Z,10.46
2018-02-02T15:04:58.803Z,10.72
2018-02-02T15:07:27.730Z,10.98
2018-02-02T15:09:56.162Z,10.65
2018-02-02T15:12:25.032Z,10.99
2018-02-02T15:14:53.497Z,10.67
2018-02-02T15:17:21.925Z,10.82
2018-02-02T15:19:50.849Z,11.06
2018-02-02T15:22:20.024Z,10.94
2018-02-02T15:24:48.456Z,11.14
2018-02-02T15:27:16.915Z,10.98
2018-02-02T15:29:45.344Z,10.57
2018-02-02T15:32:14.162Z,10.56
2018-02-02T15:34:42.684Z,10.70
2018-02-02T15:37:11.111Z,10.65
2018-02-02T15:39:40.079Z,10.49
2018-02-02T15:42:08.543Z,10.28
2018-02-02T15:44:37.027Z,10.46
2018-02-02T15:47:05.472Z,10.14
2018-02-02T15:49:33.929Z,9.94
2018-02-02T15:52:02.360Z,10.07
2018-02-02T15:54:30.812Z,10.01
2018-02-02T15:56:59.325Z,10.00
2018-02-02T15:59:27.858Z,10.25
2018-02-02T16:01:56.284Z,10.20
2018-02-02T16:04:24.754Z,9.84
2018-02-02T16:06:53.227Z,9.83
2018-02-02T16:09:21.652Z,9.95
2018-02-02T16:11:50.503Z,10.16
2018-02-02T16:14:18.929Z,10.40
2018-02-02T16:16:47.859Z,10.52
2018-02-02T16:19:16.311Z,10.29
2018-02-02T16:21:45.147Z,10.29
2018-02-02T16:24:13.579Z,10.27
2018-02-02T16:26:42.426Z,10.35
2018-02-02T16:29:10.873Z,10.42
2018-02-02T16:31:39.303Z,10.20
2018-02-02T16:34:07.757Z,9.97
2018-02-02T16:36:36.200Z,10.20
2018-02-02T16:39:04.622Z,10.26
2018-02-02T16:41:33.063Z,10.36
2018-02-02T16:44:01.502Z,10.35
2018-02-02T16:46:29.973Z,10.25
2018-02-02T16:48:58.428Z,10.36
2018-02-02T16:51:26.843Z,10.23
2018-02-02T16:53:55.292Z,10.18
2018-02-02T16:56:23.718Z,10.17
2018-02-02T16:58:52.499Z,10.40
2018-02-02T17:01:20.939Z,10.19
2018-02-02T17:03:49.416Z,10.36
2018-02-02T17:06:17.857Z,10.12
2018-02-02T17:08:46.667Z,9.97
2018-02-02T17:11:15.104Z,9.87
2018-02-02T17:13:43.528Z,9.96
2018-02-02T17:16:12.035Z,10.17
2018-02-02T17:18:40.475Z,10.26
2018-02-02T17:21:09.300Z,10.13
2018-02-02T17:23:37.764Z,10.24
2018-02-02T17:26:06.217Z,10.32
2018-02-02T17:28:35.055Z,10.28
2018-02-02T17:31:03.540Z,10.15
2018-02-02T17:33:32.019Z,10.16
2018-02-02T17:36:00.551Z,10.12
2018-02-02T17:38:29.489Z,10.05
2018-02-02T17:40:57.936Z,10.07
2018-02-02T17:43:26.859Z,9.91
2018-02-02T17:45:55.327Z,10.37
2018-02-02T17:48:23.816Z,10.27
2018-02-02T17:50:52.257Z,10.18
2018-02-02T17:53:21.079Z,10.22
2018-02-02T17:55:49.559Z,10.35
2018-02-02T17:58:18.000Z,10.33
2018-02-02T18:00:51.021Z,10.31
2018-02-02T18:03:19.905Z,10.44
2018-02-02T18:05:48.332Z,10.56
2018-02-02T18:08:16.770Z,10.77
2018-02-02T18:10:45.271Z,10.17
2018-02-02T18:13:13.738Z,10.24
2018-02-02T18:15:42.172Z,10.04
2018-02-02T18:18:10.620Z,10.02
2018-02-02T18:20:39.120Z,10.25
2018-02-02T18:23:07.561Z,10.18
2018-02-02T18:25:36.059Z,10.46
2018-02-02T18:28:04.524Z,10.23
2018-02-02T18:30:33.028Z,10.12
2018-02-02T18:33:01.914Z,10.26
2018-02-02T18:35:30.389Z,10.02
2018-02-02T18:37:59.160Z,9.70
2018-02-02T18:40:27.657Z,10.08
2018-02-02T18:42:56.141Z,10.12
2018-02-02T18:45:24.588Z,10.01
2018-02-02T18:47:53.511Z,10.05
2018-02-02T18:50:22.013Z,10.13
2018-02-02T18:52:50.460Z,10.23
2018-02-02T18:55:18.887Z,9.84
2018-02-02T18:57:47.437Z,9.83
2018-02-02T19:00:15.864Z,9.54
2018-02-02T19:02:44.387Z,9.83
2018-02-02T19:05:12.880Z,10.01
2018-02-02T19:07:41.322Z,10.05
2018-02-02T19:10:10.160Z,9.91
2018-02-02T19:12:38.619Z,9.85
2018-02-02T19:15:07.115Z,9.97
2018-02-02T19:17:35.552Z,9.77
2018-02-02T19:20:04.384Z,10.00
2018-02-02T19:22:32.832Z,9.65
2018-02-02T19:25:01.794Z,9.97
2018-02-02T19:27:30.249Z,10.23
2018-02-02T19:29:58.685Z,10.05
2018-02-02T19:32:27.157Z,9.98
2018-02-02T19:34:56.071Z,10.17
2018-02-02T19:37:24.508Z,10.10
2018-02-02T19:39:52.963Z,10.20
2018-02-02T19:42:21.537Z,10.01
2018-02-02T19:44:49.973Z,10.13
2018-02-02T19:47:18.900Z,10.11
2018-02-02T19:49:47.340Z,10.16
2018-02-02T19:52:16.276Z,10.14
2018-02-02T19:54:44.724Z,10.31
2018-02-02T19:57:19.249Z,10.33
2018-02-02T19:59:48.095Z,10.34
2018-02-02T20:02:16.531Z,10.30
2018-02-02T20:04:45.325Z,10.11
2018-02-02T20:07:13.821Z,10.11
2018-02-02T20:09:42.704Z,10.26
2018-02-02T20:12:11.295Z,10.13
2018-02-02T20:14:39.739Z,10.19
2018-02-02T20:17:08.584Z,10.34
2018-02-02T20:19:37.472Z,10.34
2018-02-02T20:22:05.927Z,10.49
2018-02-02T20:24:34.512Z,10.09
2018-02-02T20:27:03.019Z,10.20
2018-02-02T20:29:31.480Z,10.42
2018-02-02T20:31:59.947Z,10.32
2018-02-02T20:34:28.403Z,10.33
2018-02-02T20:36:57.314Z,10.54
2018-02-02T20:39:25.755Z,10.65
2018-02-02T20:41:54.200Z,10.62
2018-02-02T20:44:22.676Z,10.64
2018-02-02T20:46:51.282Z,10.35
2018-02-02T20:49:19.728Z,10.40
2018-02-02T20:51:48.208Z,10.49
2018-02-02T20:54:16.657Z,10.61
2018-02-02T20:56:45.494Z,10.58
2018-02-02T20:59:13.958Z,10.07
2018-02-02T21:01:42.576Z,10.52
2018-02-02T21:04:11.023Z,10.42
2018-02-02T21:06:39.621Z,10.25
2018-02-02T21:09:09.052Z,10.43
2018-02-02T21:11:37.760Z,10.22
2018-02-02T21:14:07.146Z,10.37
2018-02-02T21:16:36.273Z,10.50
2018-02-02T21:19:06.592Z,10.49
2018-02-02T21:21:36.610Z,10.07
2018-02-02T21:24:06.748Z,10.33
2018-02-02T21:26:35.946Z,10.49
2018-02-02T21:29:05.025Z,10.56
2018-02-02T21:31:33.716Z,10.28
2018-02-02T21:34:02.787Z,10.32
2018-02-02T21:36:32.240Z,10.37
2018-02-02T21:39:02.039Z,10.38
2018-02-02T21:41:31.842Z,10.08
2018-02-02T21:44:04.714Z,10.08
2018-02-02T21:46:33.694Z,10.18
2018-02-02T21:49:04.014Z,10.09
2018-02-02T21:51:33.204Z,10.17
2018-02-02T21:54:03.487Z,10.23
2018-02-02T21:56:32.661Z,10.33
2018-02-02T21:59:02.794Z,10.28
2018-02-02T22:01:32.111Z,9.86
2018-02-02T22:04:01.544Z,10.36
2018-02-02T22:06:30.371Z,10.43
2018-02-02T22:08:59.536Z,10.54
2018-02-02T22:11:28.085Z,10.59
2018-02-02T22:13:56.794Z,10.63
2018-02-02T22:16:25.270Z,10.76
2018-02-02T22:18:53.723Z,10.65
2018-02-02T22:21:23.070Z,10.77
2018-02-02T22:23:51.636Z,10.75
2018-02-02T22:26:20.391Z,10.88
2018-02-02T22:28:48.864Z,10.83
2018-02-02T22:31:18.484Z,10.86
2018-02-02T22:33:47.507Z,10.64
2018-02-02T22:36:17.732Z,10.68
2018-02-02T22:38:47.310Z,10.82
2018-02-02T22:41:17.200Z,10.82
2018-02-02T22:43:46.270Z,10.86
2018-02-02T22:46:15.966Z,10.75
2018-02-02T22:48:45.024Z,10.81
2018-02-02T22:51:14.442Z,10.71
2018-02-02T22:53:43.561Z,10.84
2018-02-02T22:56:12.034Z,10.73
2018-02-02T22:58:40.797Z,10.48
2018-02-02T23:01:09.678Z,10.43
2018-02-02T23:03:40.190Z,10.08
2018-02-02T23:06:09.066Z,10.06
2018-02-02T23:08:37.597Z,10.01
2018-02-02T23:11:06.084Z,9.87
2018-02-02T23:13:34.943Z,9.87
2018-02-02T23:16:04.266Z,9.75
2018-02-02T23:18:33.491Z,9.73
2018-02-02T23:21:02.626Z,9.57
2018-02-02T23:23:31.915Z,9.56
2018-02-02T23:26:02.268Z,9.54
2018-02-02T23:28:31.493Z,9.70
2018-02-02T23:31:01.796Z,9.84
2018-02-02T23:33:30.960Z,9.99
2018-02-02T23:36:01.599Z,9.93
2018-02-02T23:38:30.983Z,10.04
2018-02-02T23:40:59.867Z,10.09
2018-02-02T23:43:28.604Z,10.17
2018-02-02T23:45:57.410Z,10.16
2018-02-02T23:48:26.241Z,10.12
2018-02-02T23:50:55.395Z,10.11
2018-02-02T23:53:24.230Z,10.17
2018-02-02T23:55:54.075Z,10.17
2018-02-02T23:58:22.817Z,10.08
